Arcola, Missouri
Current Conditions -  °F | °C
As of 1:52 AM on Saturday 25 Oct 2014 (Local Time) from KSGF Reporting Station
Clear Clear  
Wind Chill: 14°   Ceiling: Unl
Heat Index: 14°   Visibility: 9mi
Dew Point: 13°   Wind: 3mph
Humidity: 93%   Direction: 200°SSW
Pressure: 30.05"   Gusts: NA
Location:  37.55°N, 93.88°W
Report Text: KSGF 250652Z 20003KT 9SM CLR 14/13 A3005 RMK AO2 SLP167 T01440133
Loading
Personal Weather Stations






























Interactive Weather Map
Tropical Storm Tracking
New forecast layout! Learn more

10-Day Weather Forecast

Advertisements
Track Severe Weather on mobile